KCUH/CUH METAR and TAF weather

Enter ICAO airport designator
Station Type Date Time Source
KCUH METAR 2019/02/23 16:55 UTC NOAA

KCUH 231655Z AUTO 21025G33KT 10SM CLR 13/04 A2959 RMK AO2 T01310041


Station Type Date Time Source
KCUH Decoded METAR 2019/02/23 16:55 UTC NOAA

Cushing, Cushing Municipal Airport, OK, United States (KCUH) 35-56-59N 096-46-22W
Feb 23, 2019 - 11:55 AM EST / 2019.02.23 1655 UTC
Wind: from the SSW (210 degrees) at 29 MPH (25 KT) gusting to 38 MPH (33 KT):0
Visibility: 10 mile(s):0
Sky conditions: clear
Temperature: 55.6 F (13.1 C)
Dew Point: 39.4 F (4.1 C)
Relative Humidity: 54%
Pressure (altimeter): 29.59 in. Hg (1002 hPa)
ob: KCUH 231655Z AUTO 21025G33KT 10SM CLR 13/04 A2959 RMK AO2 T01310041
cycle: 17

Station Type Date Time Source
KCUH TAF UTC NOAA

Error!


Example: see airport list